EDT,Max TemperatureF,Mean TemperatureF,Min TemperatureF,Max Dew PointF,MeanDew PointF,Min DewpointF,Max Humidity, Mean Humidity, Min Humidity, Max Sea Level PressureIn, Mean Sea Level PressureIn, Min Sea Level PressureIn, Max VisibilityMiles, Mean VisibilityMiles, Min VisibilityMiles, Max Wind SpeedMPH, Mean Wind SpeedMPH, Max Gust SpeedMPH,PrecipitationIn, CloudCover, Events, WindDirDegrees
2013-4-1,69,62,55,52,41,36,82,47,28,29.99,29.97,29.93,10,10,10,17,9,25,0.00,1,,294
2013-4-2,64,54,44,34,30,27,66,40,26,30.17,30.12,30.08,10,10,10,17,6,18,0.00,1,,292
2013-4-3,60,51,42,36,29,25,66,39,29,30.20,30.16,30.13,10,10,10,12,6,21,0.00,4,,71
2013-4-4,46,42,39,36,35,34,87,78,66,30.10,30.04,29.97,3,2,2,21,15,32,0.00,8,Rain,65
2013-4-5,66,55,44,43,39,34,81,49,30,30.01,29.98,29.95,10,9,4,12,7,16,0.00,3,,318
2013-4-6,69,53,37,39,35,32,81,44,27,30.20,30.15,30.12,10,10,10,9,6,,0.00,0,,122
2013-4-7,71,56,41,45,42,36,81,52,35,30.19,30.18,30.17,10,10,10,12,3,17,0.00,1,,165
2013-4-8,77,65,53,52,50,46,82,52,38,30.17,30.12,30.08,10,10,10,14,4,,0.00,4,,203
2013-4-9,80,66,53,55,53,48,82,53,37,30.21,30.16,30.11,10,8,7,9,3,18,0.00,3,,193
2013-4-10,82,68,53,55,54,48,82,53,37,30.14,30.08,29.99,10,8,5,9,3,,0.00,2,,207
2013-4-11,78,68,57,63,59,52,82,62,51,29.97,29.84,29.70,10,10,10,15,6,22,0.00,4,,192
2013-4-12,68,64,59,54,43,36,77,51,30,29.89,29.83,29.75,10,10,10,15,11,23,0.00,2,,266
2013-4-13,75,60,44,37,34,30,71,34,20,30.04,29.99,29.95,10,10,10,14,5,23,0.00,0,,290
2013-4-14,60,56,53,52,45,36,82,64,47,30.07,30.01,29.92,10,8,6,15,6,28,0.00,5,Rain,81
2013-4-15,75,65,55,55,53,52,88,63,50,30.10,30.06,29.99,10,8,1,7,3,,0.00,6,,79
2013-4-16,80,70,60,59,57,55,82,61,45,30.27,30.22,30.18,10,8,2,12,6,,0.00,6,,100
2013-4-17,82,72,62,59,57,55,77,58,45,30.24,30.19,30.12,10,10,10,12,2,28,0.00,3,,211
2013-4-18,78,68,59,59,55,54,88,57,44,30.12,30.04,29.96,10,9,5,14,6,24,0.00,3,,137
2013-4-19,69,58,48,61,49,39,82,74,71,29.94,29.88,29.82,10,7,3,14,10,25,0.00,7,Rain,244
2013-4-20,64,50,37,30,28,27,65,36,26,30.27,30.17,30.10,10,10,10,14,6,,0.00,0,,304
2013-4-21,66,54,42,37,35,30,61,42,32,30.34,30.30,30.26,10,10,10,16,10,24,0.00,0,,68
2013-4-22,69,58,46,43,39,36,66,49,38,30.32,30.25,30.17,10,10,10,16,11,21,0.00,1,,71
2013-4-23,71,58,44,45,39,25,62,44,21,30.24,30.18,30.10,10,10,10,12,5,,0.00,0,,69
2013-4-24,73,64,55,57,52,46,82,59,46,30.11,30.11,30.10,10,10,7,17,8,25,0.00,5,,221
2013-4-25,71,58,46,41,37,28,76,43,25,30.26,30.23,30.17,10,10,10,16,7,,0.00,0,,288
2013-4-26,75,58,41,43,38,34,76,38,27,30.38,30.34,30.29,10,10,10,13,5,21,0.00,0,,93
2013-4-27,66,60,55,52,49,46,77,64,55,30.33,30.27,30.20,10,8,2,15,11,23,0.00,4,Rain,77
2013-4-28,57,55,53,52,51,48,88,85,82,30.13,30.08,30.04,7,3,2,12,9,,0.00,8,Rain,76
2013-4-29,71,63,55,55,53,50,88,69,50,30.06,30.01,29.95,10,7,0,5,2,,0.00,6,Fog,318
2013-4-30,77,66,55,57,55,52,88,67,44,30.09,30.05,30.02,10,6,0,7,3,,0.00,5,Fog,96